Latest Weather Observations for Launceston Airport

IDT60801

Issued at 2:35 pm EST Wednesday 3 September 2014 (issued every 30 minutes, with the page automatically refreshed every 10 minutes)

About weather observations | Map of weather stations | Latest weather observations for TAS | Other Formats
Station Details ID: 091311 Name: LAUNCESTON AIRPORT Lat: -41.55 Lon: 147.21 Height: 166.9 m
Data from the previous 72 hours. | See also: Recent months at Launceston Airport
Date/Time
EST
Temp
°C
App
Temp
°C
Dew
Point
Rel
Hum
%
Delta-T
°C
Wind Press
QNH
hPa
Press
MSL
hPa
Rain
since 9 am
mm
Dir
 
Spd
km/h
Gust
km/h
Spd
kts
Gust
kts
03/02:30pm 13.1 10.7 4.3 55 4.0 ESE 6 11 3 6 1018.3 1018.5 0.0
03/02:00pm 13.1 10.7 4.3 55 4.0 E 6 9 3 5 1018.4 1018.6 0.0
03/01:30pm 13.2 10.8 4.4 55 4.1 WSW 6 9 3 5 1018.9 1019.1 0.0
03/01:00pm 12.4 9.3 3.4 54 4.0 SSE 9 17 5 9 1019.3 1019.5 0.0
03/12:30pm 12.6 9.5 3.8 55 4.0 SSE 9 15 5 8 1019.8 1020.0 0.0
03/12:00pm 11.7 8.4 2.7 54 3.9 S 9 15 5 8 1020.3 1020.5 0.0
03/11:30am 11.7 8.8 2.5 53 4.0 SW 7 15 4 8 1020.7 1020.9 0.0
03/11:00am 11.5 8.9 3.0 56 3.7 SSW 6 11 3 6 1021.0 1021.2 0.0
03/10:30am 10.2 7.4 2.1 57 3.5 W 6 9 3 5 1021.2 1021.4 0.0
03/10:00am 9.4 6.4 2.0 60 3.1 SSW 7 17 4 9 1021.2 1021.4 0.0
03/09:30am 9.4 6.3 1.6 58 3.3 SE 7 13 4 7 1021.2 1021.4 0.0
03/09:00am 8.6 6.1 1.7 62 2.9 S 4 7 2 4 1021.3 1021.5 0.0
03/08:30am 6.0 2.5 1.5 73 1.8 SSW 9 13 5 7 1021.3 1021.5 0.0
03/08:00am 4.0 0.4 0.7 79 1.3 S 9 13 5 7 1021.2 1021.4 0.0
03/07:30am 3.1 -0.1 -0.2 79 1.2 SE 6 11 3 6 1021.3 1021.5 0.0
03/07:00am 1.7 -2.9 -0.7 84 0.9 S 13 19 7 10 1021.1 1021.3 0.0
03/06:30am 1.1 -3.5 -1.3 84 0.9 SSE 13 19 7 10 1020.8 1021.0 0.0
03/06:00am 1.1 -3.1 -1.1 85 0.8 SSE 11 15 6 8 1020.7 1020.9 0.0
03/05:30am 1.2 -3.0 -0.7 87 0.7 SSE 11 15 6 8 1020.5 1020.7 0.0
03/05:00am 1.3 -3.3 -0.8 86 0.8 S 13 17 7 9 1020.6 1020.8 0.0
03/04:30am 1.7 -2.1 -0.4 86 0.8 S 9 11 5 6 1020.6 1020.8 0.0
03/04:00am 1.8 -2.4 -0.6 84 0.9 S 11 17 6 9 1020.6 1020.8 0.0
03/03:30am 1.8 -2.0 -0.8 83 0.9 SSE 9 15 5 8 1020.5 1020.7 0.0
03/03:00am 2.2 -1.5 -0.1 85 0.8 SSE 9 13 5 7 1020.5 1020.7 0.0
03/02:30am 2.8 -1.2 0.4 84 0.9 S 11 11 6 6 1020.7 1020.9 0.0
03/02:00am 2.3 -1.4 0.0 85 0.9 S 9 11 5 6 1020.9 1021.1 0.0
03/01:30am 2.5 -1.5 0.4 86 0.8 S 11 13 6 7 1021.1 1021.3 0.0
03/01:00am 2.7 -0.9 0.8 87 0.7 S 9 13 5 7 1021.1 1021.3 0.0
03/12:30am 3.1 -0.3 1.6 90 0.6 S 9 11 5 6 1021.1 1021.3 0.0
03/12:00am 3.3 -0.1 1.8 90 0.6 S 9 11 5 6 1021.2 1021.4 0.0
 
Date/Time
EST
Temp
°C
App
Temp
°C
Dew
Point
Rel
Hum
%
Delta-T
°C
Wind Press
QNH
hPa
Press
MSL
hPa
Rain
since 9 am
mm
Dir
 
Spd
km/h
Gust
km/h
Spd
kts
Gust
kts
02/11:30pm 3.1 -0.4 1.3 88 0.7 S 9 11 5 6 1021.2 1021.4 0.0
02/11:00pm 3.7 0.3 2.1 89 0.6 S 9 13 5 7 1021.3 1021.5 0.0
02/10:30pm 3.8 -0.4 1.4 84 0.9 S 13 17 7 9 1021.3 1021.5 0.0
02/10:00pm 3.8 -0.3 2.2 89 0.6 SSE 13 15 7 8 1021.2 1021.4 0.0
02/09:30pm 5.1 1.1 3.0 86 0.9 SSE 13 20 7 11 1021.1 1021.3 0.0
02/09:00pm 5.4 0.3 2.9 84 1.0 S 19 22 10 12 1020.8 1021.0 0.0
02/08:30pm 5.9 0.7 2.7 80 1.3 SSE 19 24 10 13 1020.6 1020.8 0.0
02/08:00pm 6.4 2.2 1.7 72 1.9 SSE 13 17 7 9 1020.4 1020.6 0.0
02/07:30pm 8.3 2.8 1.7 63 2.7 S 20 28 11 15 1019.8 1020.0 0.0
02/07:00pm 8.4 3.5 2.0 64 2.7 SSW 17 22 9 12 1019.3 1019.5 0.0
02/06:30pm 8.7 4.1 1.6 61 3.0 SSW 15 22 8 12 1019.0 1019.2 0.0
02/06:00pm 9.4 5.1 1.1 56 3.4 SSW 13 17 7 9 1018.7 1018.9 0.0
02/05:30pm 10.6 6.1 -0.2 47 4.4 SSW 13 17 7 9 1018.2 1018.4 0.0
02/05:00pm 11.5 7.4 -0.3 44 4.8 S 11 15 6 8 1017.8 1018.1 0.0
02/04:30pm 11.8 7.0 0.3 45 4.8 S 15 20 8 11 1017.6 1017.9 0.0
02/04:00pm 12.2 6.7 0.9 46 4.8 SSE 19 26 10 14 1017.4 1017.7 0.0
02/03:30pm 12.9 7.1 -1.4 37 5.8 SSW 19 26 10 14 1017.1 1017.4 0.0
02/03:00pm 12.4 6.6 0.2 43 5.1 SSE 20 26 11 14 1017.1 1017.4 0.0
02/02:30pm 12.8 9.5 0.2 42 5.3 S 7 15 4 8 1016.9 1017.2 0.0
02/02:00pm 11.9 7.2 1.0 47 4.6 ESE 15 22 8 12 1016.8 1017.1 0.0
02/01:30pm 11.7 8.1 0.5 46 4.7 SSE 9 17 5 9 1016.8 1017.1 0.0
02/01:00pm 11.5 7.8 -0.3 44 4.8 SSE 9 17 5 9 1016.9 1017.2 0.0
02/12:30pm 11.3 7.6 2.6 55 3.8 SSE 11 24 6 13 1017.1 1017.4 0.0
02/12:00pm 10.7 5.3 1.3 52 4.0 SSE 19 26 10 14 1017.3 1017.6 0.0
02/11:30am 10.4 4.2 2.0 56 3.6 SE 24 32 13 17 1017.5 1017.8 0.0
02/11:00am 10.5 5.2 2.8 59 3.3 SE 20 26 11 14 1017.6 1017.9 0.0
02/10:30am 9.9 2.9 2.0 58 3.4 SSE 28 37 15 20 1017.4 1017.7 0.0
02/10:00am 8.9 2.4 2.5 64 2.7 SSE 26 33 14 18 1017.4 1017.7 0.0
02/09:30am 8.7 3.5 3.5 70 2.3 SSE 20 28 11 15 1017.3 1017.6 0.0
02/09:00am 7.6 2.5 2.9 72 2.0 SSE 19 26 10 14 1017.1 1017.4 12.0
02/08:30am 6.9 3.4 3.5 79 1.5 S 11 15 6 8 1016.9 1017.2 12.0
02/08:00am 5.5 2.3 3.2 85 1.0 S 9 11 5 6 1016.5 1016.8 12.0
02/07:30am 4.5 0.4 2.5 87 0.8 S 13 17 7 9 1016.0 1016.2 12.0
02/07:00am 3.8 -1.1 2.2 89 0.6 SSE 17 20 9 11 1015.4 1015.6 12.0
02/06:30am 3.6 -1.2 2.4 92 0.5 SSE 17 20 9 11 1014.9 1015.1 12.0
02/06:00am 2.9 -1.7 1.7 92 0.5 S 15 17 8 9 1014.6 1014.8 12.0
02/05:30am 3.2 -0.9 2.2 93 0.4 S 13 17 7 9 1014.1 1014.3 12.0
02/05:00am 3.4 -1.1 2.1 91 0.5 S 15 17 8 9 1013.6 1013.8 12.0
02/04:30am 3.9 -0.5 2.6 91 0.5 S 15 19 8 10 1013.3 1013.5 12.0
02/04:00am 4.5 -0.3 2.8 89 0.7 S 17 20 9 11 1012.8 1013.0 12.0
02/03:30am 5.2 -0.5 3.1 86 0.9 SSE 22 30 12 16 1012.4 1012.6 12.0
02/03:00am 5.4 -0.7 2.9 84 1.0 SE 24 32 13 17 1012.1 1012.3 12.0
02/02:30am 5.3 0.1 3.3 87 0.8 SSE 20 28 11 15 1012.0 1012.2 12.0
02/02:00am 5.2 0.5 3.4 88 0.8 SSE 17 24 9 13 1011.6 1011.9 12.0
02/01:30am 5.2 0.2 3.4 88 0.8 SSE 19 24 10 13 1011.6 1011.9 12.0
02/01:00am 5.3 0.2 3.3 87 0.8 S 19 22 10 12 1011.1 1011.3 12.0
02/12:30am 5.5 0.8 3.3 86 0.9 S 17 20 9 11 1011.0 1011.2 12.0
02/12:00am 5.6 0.9 3.3 85 1.0 SSE 17 20 9 11 1010.7 1010.9 12.0
 
Date/Time
EST
Temp
°C
App
Temp
°C
Dew
Point
Rel
Hum
%
Delta-T
°C
Wind Press
QNH
hPa
Press
MSL
hPa
Rain
since 9 am
mm
Dir
 
Spd
km/h
Gust
km/h
Spd
kts
Gust
kts
01/11:30pm 6.2 1.0 3.7 84 1.1 SSE 20 26 11 14 1010.4 1010.6 12.0
01/11:00pm 7.2 1.4 4.2 81 1.3 SSE 24 33 13 18 1010.2 1010.4 12.0
01/10:30pm 7.3 1.9 4.6 83 1.2 SSE 22 30 12 16 1010.0 1010.2 12.0
01/10:00pm 7.6 1.5 4.9 83 1.2 SE 26 35 14 19 1009.8 1010.0 12.0
01/09:30pm 7.7 2.8 5.3 85 1.1 SE 20 26 11 14 1009.3 1009.5 12.0
01/09:00pm 7.9 3.2 6.0 88 0.9 SE 20 28 11 15 1008.9 1009.1 12.0
01/08:30pm 8.1 2.7 6.2 88 0.9 SE 24 32 13 17 1008.6 1008.8 11.8
01/08:00pm 7.9 2.9 6.4 90 0.7 SE 22 28 12 15 1008.1 1008.3 11.8
01/07:30pm 7.9 1.8 6.8 93 0.5 SE 28 35 15 19 1007.4 1007.6 11.8
01/07:29pm 7.8 1.7 6.7 93 0.5 SE 28 35 15 19 1007.4 1007.6 11.8
01/07:03pm 8.0 2.3 6.6 91 0.7 SE 26 39 14 21 1006.9 1007.1 9.6
01/07:00pm 8.2 2.9 6.7 90 0.7 SE 24 39 13 21 1006.9 1007.1 8.8
01/06:30pm 10.1 8.7 9.5 96 0.3 N 7 9 4 5 1005.8 1005.9 8.8
01/06:00pm 10.3 7.8 9.7 96 0.3 N 13 15 7 8 1005.1 1005.3 8.8
01/05:50pm 9.7 7.8 8.9 95 0.4 N 9 13 5 7 1004.9 1005.1 8.8
01/05:30pm 10.4 8.3 9.6 95 0.4 NNW 11 15 6 8 1004.5 1004.7 8.8
01/05:28pm 10.4 8.3 9.6 95 0.4 NNW 11 15 6 8 1004.5 1004.7 8.8
01/05:00pm 10.7 7.5 9.9 95 0.4 NNW 17 20 9 11 1004.2 1004.4 8.8
01/04:30pm 11.0 7.3 10.2 95 0.4 NNW 20 26 11 14 1003.8 1004.0 8.8
01/04:00pm 11.1 6.7 10.3 95 0.4 NNW 24 35 13 19 1003.5 1003.7 8.8
01/03:30pm 11.1 6.7 10.3 95 0.4 NNW 24 32 13 17 1003.1 1003.3 8.6
01/03:00pm 11.3 6.6 10.5 95 0.4 NNW 26 33 14 18 1003.0 1003.2 8.6
01/02:30pm 11.2 5.3 10.4 95 0.4 NNW 32 39 17 21 1002.8 1003.0 8.2
01/02:18pm 11.2 4.7 10.4 95 0.4 NNW 35 46 19 25 1002.7 1002.9 8.0
01/02:00pm 11.1 4.9 10.0 93 0.6 NNW 33 43 18 23 1002.6 1002.8 7.0
01/01:55pm 11.1 4.9 9.9 92 0.6 NNW 33 44 18 24 1002.6 1002.8 6.2
01/01:48pm 11.2 4.5 9.8 91 0.7 N 35 50 19 27 1002.4 1002.6 5.4
01/01:30pm 11.7 5.1 9.9 89 0.9 N 35 52 19 28 1002.5 1002.7 5.0
01/01:00pm 11.5 5.2 9.8 89 0.9 N 33 48 18 26 1002.9 1003.1 5.0
01/12:30pm 11.4 6.2 10.3 93 0.6 N 28 35 15 19 1003.7 1003.9 4.4
01/12:00pm 11.4 6.3 10.5 94 0.5 N 28 39 15 21 1004.3 1004.5 4.0
01/11:44am 11.5 6.4 10.6 94 0.5 N 28 39 15 21 1004.6 1004.8 3.4
01/11:30am 11.6 6.5 10.7 94 0.5 N 28 35 15 19 1004.9 1005.1 3.0
01/11:13am 11.6 6.9 10.7 94 0.5 N 26 33 14 18 1005.1 1005.3 2.4
01/11:00am 11.7 6.6 10.6 93 0.6 N 28 37 15 20 1005.2 1005.4 2.0
01/10:30am 11.9 6.7 10.1 89 0.9 N 28 37 15 20 1005.3 1005.5 1.0
01/10:00am 12.2 6.9 9.9 86 1.2 NNW 28 33 15 18 1005.4 1005.6 0.4
01/09:30am 12.3 7.7 9.7 84 1.3 NNW 24 33 13 18 1005.4 1005.7 0.2
01/09:00am 12.3 6.9 9.5 83 1.4 NNW 28 35 15 19 1005.7 1005.9 0.0
01/08:30am 12.1 7.0 9.3 83 1.4 NNW 26 33 14 18 1005.9 1006.1 0.0
01/08:00am 11.8 5.9 9.2 84 1.3 NNW 30 37 16 20 1006.0 1006.2 0.0
01/07:30am 12.5 6.8 8.4 76 2.1 NW 28 35 15 19 1005.9 1006.1 0.0
01/07:00am 11.1 7.5 8.3 83 1.4 NNW 17 19 9 10 1005.9 1006.1 0.0
01/06:30am 11.2 7.2 8.2 82 1.5 N 19 22 10 12 1006.5 1006.8 0.0
01/06:00am 11.1 7.5 8.3 83 1.4 NNW 17 20 9 11 1007.1 1007.4 0.0
01/05:30am 10.6 6.5 8.0 84 1.3 NNW 19 24 10 13 1007.3 1007.6 0.0
01/05:00am 10.5 8.1 8.6 88 0.9 NW 11 20 6 11 1007.1 1007.4 0.0
01/04:30am 9.5 5.9 6.9 84 1.2 N 15 19 8 10 1006.7 1007.0 0.0
01/04:00am 10.6 9.0 8.0 84 1.3 NW 6 13 3 7 1007.2 1007.5 0.0
01/03:30am 8.8 6.5 7.3 90 0.7 WNW 9 13 5 7 1007.6 1007.9 0.0
01/03:00am 9.0 6.0 7.5 90 0.7 NNW 13 15 7 8 1008.1 1008.4 0.0
01/02:30am 8.5 5.0 7.1 91 0.7 NE 15 17 8 9 1008.4 1008.7 0.0
01/02:00am 8.3 7.7 7.2 93 0.5 CALM 0 0 0 0 1009.2 1009.5 0.0
01/01:30am 8.1 6.0 6.6 90 0.7 SW 7 13 4 7 1009.7 1010.0 0.0
01/01:00am 8.9 6.7 8.0 94 0.4 SSW 9 13 5 7 1010.0 1010.3 0.0
01/12:30am 8.7 6.4 7.5 92 0.6 SSW 9 11 5 6 1010.4 1010.7 0.0
01/12:00am 9.4 7.0 7.0 85 1.1 W 9 13 5 7 1010.6 1010.9 0.0
 
Date/Time
EST
Temp
°C
App
Temp
°C
Dew
Point
Rel
Hum
%
Delta-T
°C
Wind Press
QNH
hPa
Press
MSL
hPa
Rain
since 9 am
mm
Dir
 
Spd
km/h
Gust
km/h
Spd
kts
Gust
kts
31/11:30pm 8.9 8.2 6.9 87 0.9 CALM 0 0 0 0 1010.6 1010.9 0.0
31/11:00pm 9.7 9.2 7.8 88 0.9 CALM 0 0 0 0 1011.1 1011.4 0.0
31/10:30pm 9.8 9.3 7.7 87 1.0 CALM 0 0 0 0 1011.5 1011.9 0.0
31/10:00pm 10.1 7.4 7.2 82 1.4 WNW 11 17 6 9 1012.0 1012.3 0.0
31/09:30pm 10.4 7.0 7.6 83 1.4 NW 15 17 8 9 1012.3 1012.6 0.0
31/09:00pm 9.4 6.8 7.7 89 0.8 NW 11 13 6 7 1012.5 1012.8 0.0
31/08:30pm 9.0 6.1 6.4 84 1.2 NNW 11 13 6 7 1012.8 1013.1 0.0
31/08:00pm 11.0 8.1 8.2 83 1.4 NW 13 17 7 9 1013.3 1013.6 0.0
31/07:30pm 10.8 7.9 8.2 84 1.3 NW 13 17 7 9 1013.3 1013.6 0.0
31/07:00pm 10.9 7.3 8.3 84 1.3 NW 17 19 9 10 1013.3 1013.6 0.0
31/06:30pm 12.1 8.6 8.6 79 1.8 NW 17 20 9 11 1013.3 1013.6 0.0
31/06:00pm 11.9 8.7 8.4 79 1.7 NW 15 17 8 9 1013.2 1013.5 0.0
31/05:30pm 11.6 7.9 7.9 78 1.8 NNW 17 19 9 10 1013.2 1013.5 0.0
31/05:00pm 13.1 9.6 8.8 75 2.2 NNW 17 22 9 12 1013.3 1013.6 0.0
31/04:30pm 13.6 9.6 8.9 73 2.4 NNW 20 26 11 14 1013.7 1014.0 0.0
31/04:00pm 14.3 10.3 9.1 71 2.7 NNW 20 28 11 15 1013.8 1014.1 0.0
31/03:30pm 14.3 10.4 9.3 72 2.6 NW 20 26 11 14 1014.2 1014.5 0.0
31/03:00pm 14.5 10.8 9.5 72 2.6 NW 19 24 10 13 1014.6 1014.9 0.0

Other Formats:

Comma delimited format used in spreadsheet applications
http://www.bom.gov.au/fwo/IDT60801/IDT60801.95966.axf

JavaScript Object Notation format (JSON) in row-major order
http://www.bom.gov.au/fwo/IDT60801/IDT60801.95966.json